sensor_id;sensor_type;location;lat;lon;timestamp;temperature;humidity
19258;DHT22;9763;48.780;9.212;2023-11-21T00:00:23;11.40;90.70
19258;DHT22;9763;48.780;9.212;2023-11-21T00:03:47;11.40;90.70
19258;DHT22;9763;48.780;9.212;2023-11-21T00:07:12;11.40;90.80
19258;DHT22;9763;48.780;9.212;2023-11-21T00:10:38;11.40;90.80
19258;DHT22;9763;48.780;9.212;2023-11-21T00:14:02;11.40;90.60
19258;DHT22;9763;48.780;9.212;2023-11-21T00:17:27;11.40;90.60
19258;DHT22;9763;48.780;9.212;2023-11-21T00:20:51;11.40;90.60
19258;DHT22;9763;48.780;9.212;2023-11-21T00:24:15;11.40;90.50
19258;DHT22;9763;48.780;9.212;2023-11-21T00:27:41;11.40;90.50
19258;DHT22;9763;48.780;9.212;2023-11-21T00:31:06;11.40;90.40
19258;DHT22;9763;48.780;9.212;2023-11-21T00:34:30;11.40;90.70
19258;DHT22;9763;48.780;9.212;2023-11-21T00:37:55;11.40;90.80
19258;DHT22;9763;48.780;9.212;2023-11-21T00:41:20;11.40;91.00
19258;DHT22;9763;48.780;9.212;2023-11-21T00:44:45;11.50;91.20
19258;DHT22;9763;48.780;9.212;2023-11-21T00:48:10;11.40;91.20
19258;DHT22;9763;48.780;9.212;2023-11-21T00:51:36;11.50;91.30
19258;DHT22;9763;48.780;9.212;2023-11-21T00:55:00;11.50;91.30
19258;DHT22;9763;48.780;9.212;2023-11-21T00:58:25;11.50;91.10
19258;DHT22;9763;48.780;9.212;2023-11-21T01:01:51;11.50;90.90
19258;DHT22;9763;48.780;9.212;2023-11-21T01:05:15;11.50;90.80
19258;DHT22;9763;48.780;9.212;2023-11-21T01:08:40;11.50;90.90
19258;DHT22;9763;48.780;9.212;2023-11-21T01:12:05;11.50;91.00
19258;DHT22;9763;48.780;9.212;2023-11-21T01:15:29;11.50;91.10
19258;DHT22;9763;48.780;9.212;2023-11-21T01:18:55;11.40;91.00
19258;DHT22;9763;48.780;9.212;2023-11-21T01:22:19;11.40;91.00
19258;DHT22;9763;48.780;9.212;2023-11-21T01:25:48;11.40;91.10
19258;DHT22;9763;48.780;9.212;2023-11-21T01:29:15;11.40;91.10
19258;DHT22;9763;48.780;9.212;2023-11-21T01:32:40;11.40;91.10
19258;DHT22;9763;48.780;9.212;2023-11-21T01:36:06;11.40;91.10
19258;DHT22;9763;48.780;9.212;2023-11-21T01:39:30;11.40;91.10
19258;DHT22;9763;48.780;9.212;2023-11-21T01:42:55;11.40;91.30
19258;DHT22;9763;48.780;9.212;2023-11-21T01:46:19;11.40;91.40
19258;DHT22;9763;48.780;9.212;2023-11-21T01:49:45;11.40;91.50
19258;DHT22;9763;48.780;9.212;2023-11-21T01:53:13;11.40;91.30
19258;DHT22;9763;48.780;9.212;2023-11-21T01:56:37;11.40;91.30
19258;DHT22;9763;48.780;9.212;2023-11-21T02:00:02;11.40;91.50
19258;DHT22;9763;48.780;9.212;2023-11-21T02:03:37;11.40;91.50
19258;DHT22;9763;48.780;9.212;2023-11-21T02:07:03;11.40;91.60
19258;DHT22;9763;48.780;9.212;2023-11-21T02:10:30;11.40;91.70
19258;DHT22;9763;48.780;9.212;2023-11-21T02:13:54;11.40;91.50
19258;DHT22;9763;48.780;9.212;2023-11-21T02:17:18;11.50;91.50
19258;DHT22;9763;48.780;9.212;2023-11-21T02:20:42;11.50;91.50
19258;DHT22;9763;48.780;9.212;2023-11-21T02:24:08;11.50;91.30
19258;DHT22;9763;48.780;9.212;2023-11-21T02:27:32;11.50;91.00
19258;DHT22;9763;48.780;9.212;2023-11-21T02:30:56;11.50;91.00
19258;DHT22;9763;48.780;9.212;2023-11-21T02:34:22;11.40;91.00
19258;DHT22;9763;48.780;9.212;2023-11-21T02:37:47;11.50;91.10
19258;DHT22;9763;48.780;9.212;2023-11-21T02:41:12;11.40;91.00
19258;DHT22;9763;48.780;9.212;2023-11-21T02:44:36;11.40;90.90
19258;DHT22;9763;48.780;9.212;2023-11-21T02:48:00;11.40;91.00
19258;DHT22;9763;48.780;9.212;2023-11-21T02:51:25;11.40;91.10
19258;DHT22;9763;48.780;9.212;2023-11-21T02:54:48;11.40;91.20
19258;DHT22;9763;48.780;9.212;2023-11-21T02:58:14;11.40;90.90
19258;DHT22;9763;48.780;9.212;2023-11-21T03:01:39;11.40;90.40
19258;DHT22;9763;48.780;9.212;2023-11-21T03:05:04;11.30;90.40
19258;DHT22;9763;48.780;9.212;2023-11-21T03:08:28;11.30;90.40
19258;DHT22;9763;48.780;9.212;2023-11-21T03:11:52;11.30;90.40
19258;DHT22;9763;48.780;9.212;2023-11-21T03:15:17;11.30;90.30
19258;DHT22;9763;48.780;9.212;2023-11-21T03:18:41;11.20;90.20
19258;DHT22;9763;48.780;9.212;2023-11-21T03:22:07;11.20;90.40
19258;DHT22;9763;48.780;9.212;2023-11-21T03:25:32;11.20;90.70
19258;DHT22;9763;48.780;9.212;2023-11-21T03:28:56;11.20;90.90
19258;DHT22;9763;48.780;9.212;2023-11-21T03:32:21;11.20;91.00
19258;DHT22;9763;48.780;9.212;2023-11-21T03:35:45;11.20;91.00
19258;DHT22;9763;48.780;9.212;2023-11-21T03:39:10;11.30;91.20
19258;DHT22;9763;48.780;9.212;2023-11-21T03:42:33;11.20;91.00
19258;DHT22;9763;48.780;9.212;2023-11-21T03:45:57;11.20;91.10
19258;DHT22;9763;48.780;9.212;2023-11-21T03:49:22;11.30;91.20
19258;DHT22;9763;48.780;9.212;2023-11-21T03:52:46;11.30;91.20
19258;DHT22;9763;48.780;9.212;2023-11-21T03:56:10;11.30;91.10
19258;DHT22;9763;48.780;9.212;2023-11-21T03:59:34;11.30;91.00
19258;DHT22;9763;48.780;9.212;2023-11-21T04:02:58;11.30;90.80
19258;DHT22;9763;48.780;9.212;2023-11-21T04:06:23;11.30;90.90
19258;DHT22;9763;48.780;9.212;2023-11-21T04:09:48;11.30;91.00
19258;DHT22;9763;48.780;9.212;2023-11-21T04:13:11;11.30;91.10
19258;DHT22;9763;48.780;9.212;2023-11-21T04:16:36;11.20;91.10
19258;DHT22;9763;48.780;9.212;2023-11-21T04:20:00;11.20;90.90
19258;DHT22;9763;48.780;9.212;2023-11-21T04:23:27;11.30;90.90
19258;DHT22;9763;48.780;9.212;2023-11-21T04:26:53;8.90;90.10
19258;DHT22;9763;48.780;9.212;2023-11-21T04:30:17;11.20;90.80
19258;DHT22;9763;48.780;9.212;2023-11-21T04:33:41;11.20;91.00
19258;DHT22;9763;48.780;9.212;2023-11-21T04:37:04;11.10;91.00
19258;DHT22;9763;48.780;9.212;2023-11-21T04:40:30;11.20;91.10
19258;DHT22;9763;48.780;9.212;2023-11-21T04:43:55;11.10;91.10
19258;DHT22;9763;48.780;9.212;2023-11-21T04:47:19;11.10;91.00
19258;DHT22;9763;48.780;9.212;2023-11-21T04:50:43;11.10;90.80
19258;DHT22;9763;48.780;9.212;2023-11-21T04:54:06;11.10;90.60
19258;DHT22;9763;48.780;9.212;2023-11-21T04:57:32;11.10;90.30
19258;DHT22;9763;48.780;9.212;2023-11-21T05:00:57;11.00;90.10
19258;DHT22;9763;48.780;9.212;2023-11-21T05:04:21;11.00;90.00
19258;DHT22;9763;48.780;9.212;2023-11-21T05:07:45;10.90;89.90
19258;DHT22;9763;48.780;9.212;2023-11-21T05:11:08;10.90;90.00
19258;DHT22;9763;48.780;9.212;2023-11-21T05:14:34;11.00;90.20
19258;DHT22;9763;48.780;9.212;2023-11-21T05:17:58;10.80;90.20
19258;DHT22;9763;48.780;9.212;2023-11-21T05:21:22;10.80;90.50
19258;DHT22;9763;48.780;9.212;2023-11-21T05:24:47;10.80;90.60
19258;DHT22;9763;48.780;9.212;2023-11-21T05:28:12;10.80;90.80
19258;DHT22;9763;48.780;9.212;2023-11-21T05:31:37;10.80;91.00
19258;DHT22;9763;48.780;9.212;2023-11-21T05:35:01;10.90;91.10
19258;DHT22;9763;48.780;9.212;2023-11-21T05:38:24;10.90;91.20
19258;DHT22;9763;48.780;9.212;2023-11-21T05:41:48;10.90;91.20
19258;DHT22;9763;48.780;9.212;2023-11-21T05:45:11;10.90;91.30
19258;DHT22;9763;48.780;9.212;2023-11-21T05:48:37;10.90;91.40
19258;DHT22;9763;48.780;9.212;2023-11-21T05:52:00;10.90;91.40
19258;DHT22;9763;48.780;9.212;2023-11-21T05:55:24;11.00;91.50
19258;DHT22;9763;48.780;9.212;2023-11-21T05:58:48;11.00;91.40
19258;DHT22;9763;48.780;9.212;2023-11-21T06:02:13;11.00;91.20
19258;DHT22;9763;48.780;9.212;2023-11-21T06:05:38;11.00;91.10
19258;DHT22;9763;48.780;9.212;2023-11-21T06:09:02;11.00;90.80
19258;DHT22;9763;48.780;9.212;2023-11-21T06:12:28;11.00;90.80
19258;DHT22;9763;48.780;9.212;2023-11-21T06:15:52;11.00;90.90
19258;DHT22;9763;48.780;9.212;2023-11-21T06:19:17;11.00;91.00
19258;DHT22;9763;48.780;9.212;2023-11-21T06:22:43;11.00;91.10
19258;DHT22;9763;48.780;9.212;2023-11-21T06:26:06;11.00;91.10
19258;DHT22;9763;48.780;9.212;2023-11-21T06:29:31;11.00;91.20
19258;DHT22;9763;48.780;9.212;2023-11-21T06:32:55;11.00;91.30
19258;DHT22;9763;48.780;9.212;2023-11-21T06:36:19;11.00;91.40
19258;DHT22;9763;48.780;9.212;2023-11-21T06:39:44;11.10;91.30
19258;DHT22;9763;48.780;9.212;2023-11-21T06:43:08;11.10;91.20
19258;DHT22;9763;48.780;9.212;2023-11-21T06:46:32;11.10;91.30
19258;DHT22;9763;48.780;9.212;2023-11-21T06:49:56;11.10;91.40
19258;DHT22;9763;48.780;9.212;2023-11-21T06:53:20;11.10;91.40
19258;DHT22;9763;48.780;9.212;2023-11-21T06:56:45;11.10;91.40
19258;DHT22;9763;48.780;9.212;2023-11-21T07:00:10;11.10;91.30
19258;DHT22;9763;48.780;9.212;2023-11-21T07:03:35;11.10;91.40
19258;DHT22;9763;48.780;9.212;2023-11-21T07:07:00;11.10;91.60
19258;DHT22;9763;48.780;9.212;2023-11-21T07:10:24;11.10;91.60
19258;DHT22;9763;48.780;9.212;2023-11-21T07:13:49;11.10;91.80
19258;DHT22;9763;48.780;9.212;2023-11-21T07:17:14;11.10;91.80
19258;DHT22;9763;48.780;9.212;2023-11-21T07:20:39;11.10;92.10
19258;DHT22;9763;48.780;9.212;2023-11-21T07:24:04;11.20;92.30
19258;DHT22;9763;48.780;9.212;2023-11-21T07:27:29;11.20;92.50
19258;DHT22;9763;48.780;9.212;2023-11-21T07:30:54;11.30;92.70
19258;DHT22;9763;48.780;9.212;2023-11-21T07:34:18;11.30;92.70
19258;DHT22;9763;48.780;9.212;2023-11-21T07:37:42;11.40;92.90
19258;DHT22;9763;48.780;9.212;2023-11-21T07:41:23;11.40;93.00
19258;DHT22;9763;48.780;9.212;2023-11-21T07:44:52;11.50;92.80
19258;DHT22;9763;48.780;9.212;2023-11-21T07:48:18;11.50;92.80
19258;DHT22;9763;48.780;9.212;2023-11-21T07:51:41;11.50;92.50
19258;DHT22;9763;48.780;9.212;2023-11-21T07:55:06;11.50;92.60
19258;DHT22;9763;48.780;9.212;2023-11-21T07:58:30;11.60;92.60
19258;DHT22;9763;48.780;9.212;2023-11-21T08:01:55;11.60;92.70
19258;DHT22;9763;48.780;9.212;2023-11-21T08:05:20;11.60;92.70
19258;DHT22;9763;48.780;9.212;2023-11-21T08:08:53;11.60;92.50
19258;DHT22;9763;48.780;9.212;2023-11-21T08:12:17;11.70;92.70
19258;DHT22;9763;48.780;9.212;2023-11-21T08:15:42;11.70;92.70
19258;DHT22;9763;48.780;9.212;2023-11-21T08:19:09;11.70;92.70
19258;DHT22;9763;48.780;9.212;2023-11-21T08:22:34;11.70;92.80
19258;DHT22;9763;48.780;9.212;2023-11-21T08:25:58;11.70;92.70
19258;DHT22;9763;48.780;9.212;2023-11-21T08:29:23;11.80;93.00
19258;DHT22;9763;48.780;9.212;2023-11-21T08:32:47;11.80;93.10
19258;DHT22;9763;48.780;9.212;2023-11-21T08:36:11;11.90;93.00
19258;DHT22;9763;48.780;9.212;2023-11-21T08:39:36;11.90;92.70
19258;DHT22;9763;48.780;9.212;2023-11-21T08:43:00;11.90;92.50
19258;DHT22;9763;48.780;9.212;2023-11-21T08:46:26;11.90;92.60
19258;DHT22;9763;48.780;9.212;2023-11-21T08:49:50;11.90;92.80
19258;DHT22;9763;48.780;9.212;2023-11-21T08:53:15;12.00;93.00
19258;DHT22;9763;48.780;9.212;2023-11-21T08:56:40;12.00;93.40
19258;DHT22;9763;48.780;9.212;2023-11-21T09:00:06;12.00;93.60
19258;DHT22;9763;48.780;9.212;2023-11-21T09:03:33;12.10;94.00
19258;DHT22;9763;48.780;9.212;2023-11-21T09:06:57;12.20;94.40
19258;DHT22;9763;48.780;9.212;2023-11-21T09:10:22;12.30;94.50
19258;DHT22;9763;48.780;9.212;2023-11-21T09:13:49;12.40;94.60
19258;DHT22;9763;48.780;9.212;2023-11-21T09:17:13;12.50;94.80
19258;DHT22;9763;48.780;9.212;2023-11-21T09:20:37;12.60;95.70
19258;DHT22;9763;48.780;9.212;2023-11-21T09:24:01;12.80;96.40
19258;DHT22;9763;48.780;9.212;2023-11-21T09:27:25;12.90;96.30
19258;DHT22;9763;48.780;9.212;2023-11-21T09:30:50;13.00;95.80
19258;DHT22;9763;48.780;9.212;2023-11-21T09:34:13;13.10;94.90
19258;DHT22;9763;48.780;9.212;2023-11-21T09:37:37;13.20;94.60
19258;DHT22;9763;48.780;9.212;2023-11-21T09:41:02;13.30;94.20
19258;DHT22;9763;48.780;9.212;2023-11-21T09:44:34;13.40;94.50
19258;DHT22;9763;48.780;9.212;2023-11-21T09:48:01;13.30;94.30
19258;DHT22;9763;48.780;9.212;2023-11-21T09:51:27;13.40;94.50
19258;DHT22;9763;48.780;9.212;2023-11-21T09:54:55;13.40;94.70
19258;DHT22;9763;48.780;9.212;2023-11-21T09:58:21;13.50;94.60
19258;DHT22;9763;48.780;9.212;2023-11-21T10:01:47;13.60;93.80
19258;DHT22;9763;48.780;9.212;2023-11-21T10:05:15;13.50;93.10
19258;DHT22;9763;48.780;9.212;2023-11-21T10:08:39;13.50;93.20
19258;DHT22;9763;48.780;9.212;2023-11-21T10:12:16;13.50;93.40
19258;DHT22;9763;48.780;9.212;2023-11-21T10:15:41;13.50;93.10
19258;DHT22;9763;48.780;9.212;2023-11-21T10:19:10;13.50;93.20
19258;DHT22;9763;48.780;9.212;2023-11-21T10:22:37;13.60;93.20
19258;DHT22;9763;48.780;9.212;2023-11-21T10:26:05;13.50;92.60
19258;DHT22;9763;48.780;9.212;2023-11-21T10:29:47;13.50;92.00
19258;DHT22;9763;48.780;9.212;2023-11-21T10:33:14;13.50;91.70
19258;DHT22;9763;48.780;9.212;2023-11-21T10:36:39;13.40;91.50
19258;DHT22;9763;48.780;9.212;2023-11-21T10:40:05;13.30;91.30
19258;DHT22;9763;48.780;9.212;2023-11-21T10:43:30;13.30;90.70
19258;DHT22;9763;48.780;9.212;2023-11-21T10:46:57;13.20;90.40
19258;DHT22;9763;48.780;9.212;2023-11-21T10:50:23;13.10;90.50
19258;DHT22;9763;48.780;9.212;2023-11-21T10:53:48;12.90;90.50
19258;DHT22;9763;48.780;9.212;2023-11-21T10:57:18;12.80;90.90
19258;DHT22;9763;48.780;9.212;2023-11-21T11:00:46;12.80;91.60
19258;DHT22;9763;48.780;9.212;2023-11-21T11:04:11;12.80;92.40
19258;DHT22;9763;48.780;9.212;2023-11-21T11:07:42;12.80;92.80
19258;DHT22;9763;48.780;9.212;2023-11-21T11:11:09;12.80;92.90
19258;DHT22;9763;48.780;9.212;2023-11-21T11:14:34;12.80;93.50
19258;DHT22;9763;48.780;9.212;2023-11-21T11:17:59;12.90;94.30
19258;DHT22;9763;48.780;9.212;2023-11-21T11:21:30;13.00;95.50
19258;DHT22;9763;48.780;9.212;2023-11-21T11:25:28;13.20;96.10
19258;DHT22;9763;48.780;9.212;2023-11-21T11:29:10;13.40;95.80
19258;DHT22;9763;48.780;9.212;2023-11-21T11:32:50;13.50;95.70
19258;DHT22;9763;48.780;9.212;2023-11-21T11:36:28;13.70;95.20
19258;DHT22;9763;48.780;9.212;2023-11-21T11:39:55;13.80;94.80
19258;DHT22;9763;48.780;9.212;2023-11-21T11:43:25;13.90;94.90
19258;DHT22;9763;48.780;9.212;2023-11-21T11:46:53;13.90;94.30
19258;DHT22;9763;48.780;9.212;2023-11-21T11:50:18;14.00;93.90
19258;DHT22;9763;48.780;9.212;2023-11-21T11:53:45;14.00;93.40
19258;DHT22;9763;48.780;9.212;2023-11-21T11:57:10;14.00;92.70
19258;DHT22;9763;48.780;9.212;2023-11-21T12:00:36;14.00;92.20
19258;DHT22;9763;48.780;9.212;2023-11-21T12:04:23;14.00;92.00
19258;DHT22;9763;48.780;9.212;2023-11-21T12:07:55;13.90;91.70
19258;DHT22;9763;48.780;9.212;2023-11-21T12:11:20;13.90;91.30
19258;DHT22;9763;48.780;9.212;2023-11-21T12:14:53;13.80;91.10
19258;DHT22;9763;48.780;9.212;2023-11-21T12:18:18;13.80;91.20
19258;DHT22;9763;48.780;9.212;2023-11-21T12:21:42;13.70;91.30
19258;DHT22;9763;48.780;9.212;2023-11-21T12:25:08;13.60;91.30
19258;DHT22;9763;48.780;9.212;2023-11-21T12:28:32;13.60;91.50
19258;DHT22;9763;48.780;9.212;2023-11-21T12:31:56;13.60;91.90
19258;DHT22;9763;48.780;9.212;2023-11-21T12:35:21;13.60;92.10
19258;DHT22;9763;48.780;9.212;2023-11-21T12:38:46;13.60;92.30
19258;DHT22;9763;48.780;9.212;2023-11-21T12:42:12;13.60;92.30
19258;DHT22;9763;48.780;9.212;2023-11-21T12:45:35;13.60;92.10
19258;DHT22;9763;48.780;9.212;2023-11-21T12:49:00;13.60;92.40
19258;DHT22;9763;48.780;9.212;2023-11-21T12:52:24;13.60;92.30
19258;DHT22;9763;48.780;9.212;2023-11-21T12:55:49;13.60;92.50
19258;DHT22;9763;48.780;9.212;2023-11-21T12:59:15;13.70;92.70
19258;DHT22;9763;48.780;9.212;2023-11-21T13:02:42;13.70;92.30
19258;DHT22;9763;48.780;9.212;2023-11-21T13:06:06;13.80;92.10
19258;DHT22;9763;48.780;9.212;2023-11-21T13:09:30;13.70;91.60
19258;DHT22;9763;48.780;9.212;2023-11-21T13:12:55;13.70;91.20
19258;DHT22;9763;48.780;9.212;2023-11-21T13:16:22;13.60;90.90
19258;DHT22;9763;48.780;9.212;2023-11-21T13:19:46;13.60;91.10
19258;DHT22;9763;48.780;9.212;2023-11-21T13:23:10;13.50;91.80
19258;DHT22;9763;48.780;9.212;2023-11-21T13:26:34;13.50;91.40
19258;DHT22;9763;48.780;9.212;2023-11-21T13:29:58;13.50;91.10
19258;DHT22;9763;48.780;9.212;2023-11-21T13:33:38;13.40;90.60
19258;DHT22;9763;48.780;9.212;2023-11-21T13:37:03;13.30;89.80
19258;DHT22;9763;48.780;9.212;2023-11-21T13:40:30;13.20;88.40
19258;DHT22;9763;48.780;9.212;2023-11-21T13:43:56;13.00;88.30
19258;DHT22;9763;48.780;9.212;2023-11-21T13:47:29;12.80;88.20
19258;DHT22;9763;48.780;9.212;2023-11-21T13:50:54;12.70;88.70
19258;DHT22;9763;48.780;9.212;2023-11-21T13:54:21;12.50;89.50
19258;DHT22;9763;48.780;9.212;2023-11-21T13:57:47;12.40;90.10
19258;DHT22;9763;48.780;9.212;2023-11-21T14:01:14;12.40;90.40
19258;DHT22;9763;48.780;9.212;2023-11-21T14:04:57;12.30;90.70
19258;DHT22;9763;48.780;9.212;2023-11-21T14:08:25;12.30;91.10
19258;DHT22;9763;48.780;9.212;2023-11-21T14:11:51;12.20;91.40
19258;DHT22;9763;48.780;9.212;2023-11-21T14:15:18;12.20;91.80
19258;DHT22;9763;48.780;9.212;2023-11-21T14:18:41;12.30;92.10
19258;DHT22;9763;48.780;9.212;2023-11-21T14:22:15;12.30;92.20
19258;DHT22;9763;48.780;9.212;2023-11-21T14:25:40;12.30;92.50
19258;DHT22;9763;48.780;9.212;2023-11-21T14:29:04;12.30;92.40
19258;DHT22;9763;48.780;9.212;2023-11-21T14:32:28;12.40;92.60
19258;DHT22;9763;48.780;9.212;2023-11-21T14:35:54;12.40;92.90
19258;DHT22;9763;48.780;9.212;2023-11-21T14:39:19;12.40;92.60
19258;DHT22;9763;48.780;9.212;2023-11-21T14:42:48;12.40;92.40
19258;DHT22;9763;48.780;9.212;2023-11-21T14:46:14;12.50;92.40
19258;DHT22;9763;48.780;9.212;2023-11-21T14:49:39;12.50;92.40
19258;DHT22;9763;48.780;9.212;2023-11-21T14:53:14;12.50;92.40
19258;DHT22;9763;48.780;9.212;2023-11-21T14:56:45;12.50;92.50
19258;DHT22;9763;48.780;9.212;2023-11-21T15:00:13;12.50;92.50
19258;DHT22;9763;48.780;9.212;2023-11-21T15:03:58;12.60;92.40
19258;DHT22;9763;48.780;9.212;2023-11-21T15:07:21;12.60;92.50
19258;DHT22;9763;48.780;9.212;2023-11-21T15:10:48;12.60;92.40
19258;DHT22;9763;48.780;9.212;2023-11-21T15:14:16;12.60;92.30
19258;DHT22;9763;48.780;9.212;2023-11-21T15:17:47;12.60;92.10
19258;DHT22;9763;48.780;9.212;2023-11-21T15:21:10;12.80;92.00
19258;DHT22;9763;48.780;9.212;2023-11-21T15:24:34;12.60;91.90
19258;DHT22;9763;48.780;9.212;2023-11-21T15:27:58;12.60;91.90
19258;DHT22;9763;48.780;9.212;2023-11-21T15:31:22;12.60;91.80
19258;DHT22;9763;48.780;9.212;2023-11-21T15:34:48;12.60;91.70
19258;DHT22;9763;48.780;9.212;2023-11-21T15:38:12;12.60;91.30
19258;DHT22;9763;48.780;9.212;2023-11-21T15:41:37;12.50;91.40
19258;DHT22;9763;48.780;9.212;2023-11-21T15:45:01;12.50;91.40
19258;DHT22;9763;48.780;9.212;2023-11-21T15:48:25;12.50;91.50
19258;DHT22;9763;48.780;9.212;2023-11-21T15:51:50;12.50;91.50
19258;DHT22;9763;48.780;9.212;2023-11-21T15:55:16;12.50;91.20
19258;DHT22;9763;48.780;9.212;2023-11-21T15:58:41;12.40;91.10
19258;DHT22;9763;48.780;9.212;2023-11-21T16:02:05;12.40;90.90
19258;DHT22;9763;48.780;9.212;2023-11-21T16:05:29;12.40;90.60
19258;DHT22;9763;48.780;9.212;2023-11-21T16:08:55;12.30;90.50
19258;DHT22;9763;48.780;9.212;2023-11-21T16:12:20;14.00;91.30
19258;DHT22;9763;48.780;9.212;2023-11-21T16:15:45;12.30;90.70
19258;DHT22;9763;48.780;9.212;2023-11-21T16:19:13;12.30;90.80
19258;DHT22;9763;48.780;9.212;2023-11-21T16:22:37;12.20;90.80
19258;DHT22;9763;48.780;9.212;2023-11-21T16:26:03;12.20;90.80
19258;DHT22;9763;48.780;9.212;2023-11-21T16:29:27;12.20;90.80
19258;DHT22;9763;48.780;9.212;2023-11-21T16:32:53;12.20;90.90
19258;DHT22;9763;48.780;9.212;2023-11-21T16:36:16;12.20;90.90
19258;DHT22;9763;48.780;9.212;2023-11-21T16:39:40;12.50;90.90
19258;DHT22;9763;48.780;9.212;2023-11-21T16:43:07;12.20;90.70
19258;DHT22;9763;48.780;9.212;2023-11-21T16:46:31;12.20;90.50
19258;DHT22;9763;48.780;9.212;2023-11-21T16:49:55;12.20;90.50
19258;DHT22;9763;48.780;9.212;2023-11-21T16:53:20;12.10;90.40
19258;DHT22;9763;48.780;9.212;2023-11-21T16:56:44;12.10;90.10
19258;DHT22;9763;48.780;9.212;2023-11-21T17:00:11;12.10;89.70
19258;DHT22;9763;48.780;9.212;2023-11-21T17:03:35;12.00;88.80
19258;DHT22;9763;48.780;9.212;2023-11-21T17:06:59;11.90;87.60
19258;DHT22;9763;48.780;9.212;2023-11-21T17:10:23;11.80;87.00
19258;DHT22;9763;48.780;9.212;2023-11-21T17:13:46;11.70;86.50
19258;DHT22;9763;48.780;9.212;2023-11-21T17:17:11;11.50;86.60
19258;DHT22;9763;48.780;9.212;2023-11-21T17:20:36;11.40;86.70
19258;DHT22;9763;48.780;9.212;2023-11-21T17:24:00;11.30;87.10
19258;DHT22;9763;48.780;9.212;2023-11-21T17:27:23;11.30;88.20
19258;DHT22;9763;48.780;9.212;2023-11-21T17:30:47;11.20;88.90
19258;DHT22;9763;48.780;9.212;2023-11-21T17:34:13;11.20;89.50
19258;DHT22;9763;48.780;9.212;2023-11-21T17:37:41;11.10;89.70
19258;DHT22;9763;48.780;9.212;2023-11-21T17:41:05;11.10;90.10
19258;DHT22;9763;48.780;9.212;2023-11-21T17:44:28;11.10;90.40
19258;DHT22;9763;48.780;9.212;2023-11-21T17:47:52;11.10;90.60
19258;DHT22;9763;48.780;9.212;2023-11-21T17:51:17;11.10;90.80
19258;DHT22;9763;48.780;9.212;2023-11-21T17:54:41;11.10;91.00
19258;DHT22;9763;48.780;9.212;2023-11-21T17:58:05;11.10;91.30
19258;DHT22;9763;48.780;9.212;2023-11-21T18:01:29;11.20;91.50
19258;DHT22;9763;48.780;9.212;2023-11-21T18:04:59;11.20;91.70
19258;DHT22;9763;48.780;9.212;2023-11-21T18:08:25;11.20;91.80
19258;DHT22;9763;48.780;9.212;2023-11-21T18:11:49;11.20;91.80
19258;DHT22;9763;48.780;9.212;2023-11-21T18:15:13;11.20;92.00
19258;DHT22;9763;48.780;9.212;2023-11-21T18:18:37;11.20;92.20
19258;DHT22;9763;48.780;9.212;2023-11-21T18:22:01;11.30;92.20
19258;DHT22;9763;48.780;9.212;2023-11-21T18:25:27;11.30;92.10
19258;DHT22;9763;48.780;9.212;2023-11-21T18:28:51;11.30;92.00
19258;DHT22;9763;48.780;9.212;2023-11-21T18:32:15;11.30;92.00
19258;DHT22;9763;48.780;9.212;2023-11-21T18:35:39;11.30;91.90
19258;DHT22;9763;48.780;9.212;2023-11-21T18:39:03;11.30;91.90
19258;DHT22;9763;48.780;9.212;2023-11-21T18:42:31;11.30;92.00
19258;DHT22;9763;48.780;9.212;2023-11-21T18:45:56;11.40;92.00
19258;DHT22;9763;48.780;9.212;2023-11-21T18:49:22;11.30;92.20
19258;DHT22;9763;48.780;9.212;2023-11-21T18:52:46;11.40;92.40
19258;DHT22;9763;48.780;9.212;2023-11-21T18:56:19;11.40;92.40
19258;DHT22;9763;48.780;9.212;2023-11-21T18:59:47;11.40;92.30
19258;DHT22;9763;48.780;9.212;2023-11-21T19:03:11;11.40;92.80
19258;DHT22;9763;48.780;9.212;2023-11-21T19:06:35;11.40;92.60
19258;DHT22;9763;48.780;9.212;2023-11-21T19:09:59;11.50;92.60
19258;DHT22;9763;48.780;9.212;2023-11-21T19:13:23;11.50;92.50
19258;DHT22;9763;48.780;9.212;2023-11-21T19:16:48;11.50;92.50
19258;DHT22;9763;48.780;9.212;2023-11-21T19:20:13;11.60;92.40
19258;DHT22;9763;48.780;9.212;2023-11-21T19:23:37;11.60;92.40
19258;DHT22;9763;48.780;9.212;2023-11-21T19:27:00;11.60;92.20
19258;DHT22;9763;48.780;9.212;2023-11-21T19:30:25;11.70;92.20
19258;DHT22;9763;48.780;9.212;2023-11-21T19:33:50;11.70;91.90
19258;DHT22;9763;48.780;9.212;2023-11-21T19:37:15;11.80;91.70
19258;DHT22;9763;48.780;9.212;2023-11-21T19:40:39;11.70;91.80
19258;DHT22;9763;48.780;9.212;2023-11-21T19:44:05;11.70;92.00
19258;DHT22;9763;48.780;9.212;2023-11-21T19:47:29;11.70;92.00
19258;DHT22;9763;48.780;9.212;2023-11-21T19:50:57;11.80;91.80
19258;DHT22;9763;48.780;9.212;2023-11-21T19:54:22;11.80;91.50
19258;DHT22;9763;48.780;9.212;2023-11-21T19:57:45;11.80;91.60
19258;DHT22;9763;48.780;9.212;2023-11-21T20:01:09;11.70;91.30
19258;DHT22;9763;48.780;9.212;2023-11-21T20:04:33;11.70;91.00
19258;DHT22;9763;48.780;9.212;2023-11-21T20:07:58;11.70;90.90
19258;DHT22;9763;48.780;9.212;2023-11-21T20:11:22;11.60;90.90
19258;DHT22;9763;48.780;9.212;2023-11-21T20:14:47;11.60;91.20
19258;DHT22;9763;48.780;9.212;2023-11-21T20:18:11;11.70;91.40
19258;DHT22;9763;48.780;9.212;2023-11-21T20:21:35;11.60;91.30
19258;DHT22;9763;48.780;9.212;2023-11-21T20:24:59;11.60;91.20
19258;DHT22;9763;48.780;9.212;2023-11-21T20:28:24;11.60;91.50
19258;DHT22;9763;48.780;9.212;2023-11-21T20:31:48;11.60;91.30
19258;DHT22;9763;48.780;9.212;2023-11-21T20:35:13;11.60;91.20
19258;DHT22;9763;48.780;9.212;2023-11-21T20:38:37;11.50;91.10
19258;DHT22;9763;48.780;9.212;2023-11-21T20:42:03;11.50;91.10
19258;DHT22;9763;48.780;9.212;2023-11-21T20:45:28;11.50;90.90
19258;DHT22;9763;48.780;9.212;2023-11-21T20:48:52;11.40;90.90
19258;DHT22;9763;48.780;9.212;2023-11-21T20:52:17;11.40;90.90
19258;DHT22;9763;48.780;9.212;2023-11-21T20:55:40;11.40;91.00
19258;DHT22;9763;48.780;9.212;2023-11-21T20:59:06;11.40;91.20
19258;DHT22;9763;48.780;9.212;2023-11-21T21:02:30;11.30;91.20
19258;DHT22;9763;48.780;9.212;2023-11-21T21:05:53;11.30;91.20
19258;DHT22;9763;48.780;9.212;2023-11-21T21:09:17;11.30;91.20
19258;DHT22;9763;48.780;9.212;2023-11-21T21:12:41;11.30;91.40
19258;DHT22;9763;48.780;9.212;2023-11-21T21:16:06;11.30;91.30
19258;DHT22;9763;48.780;9.212;2023-11-21T21:19:30;11.30;91.40
19258;DHT22;9763;48.780;9.212;2023-11-21T21:22:55;11.30;91.50
19258;DHT22;9763;48.780;9.212;2023-11-21T21:26:19;11.30;91.60
19258;DHT22;9763;48.780;9.212;2023-11-21T21:29:43;11.30;91.60
19258;DHT22;9763;48.780;9.212;2023-11-21T21:33:09;11.30;91.60
19258;DHT22;9763;48.780;9.212;2023-11-21T21:36:32;11.30;91.60
19258;DHT22;9763;48.780;9.212;2023-11-21T21:39:56;11.30;91.60
19258;DHT22;9763;48.780;9.212;2023-11-21T21:43:20;11.30;91.60
19258;DHT22;9763;48.780;9.212;2023-11-21T21:46:44;11.30;91.50
19258;DHT22;9763;48.780;9.212;2023-11-21T21:50:11;11.20;91.50
19258;DHT22;9763;48.780;9.212;2023-11-21T21:53:36;11.30;91.50
19258;DHT22;9763;48.780;9.212;2023-11-21T21:56:59;11.30;91.60